Terminal Aerodrome Forecast
Issued by NWS

Home | Current Version | Previous Version | Text Only | Print | Product List | Glossary On
Versions: 1 2 3 4 5 6 7 8 9 10 11 12 13 14 15 16 17 18 19 20 21 22 23
000
FTUS43 KDLH 291735
TAFHIB
TAF
KHIB 291735Z 2918/3018 26013G23KT P6SM VCSH BKN025 OVC035
     FM292300 28017G25KT P6SM SCT035
     FM300200 29008KT P6SM SKC
     FM301300 30012G22KT P6SM SKC=

USA.gov is the U.S. government's official web portal to all federal, state and local government web resources and services.